sensor_id;sensor_type;location;lat;lon;timestamp;pressure;altitude;pressure_sealevel;temperature;humidity
59829;BME280;45708;51.848;107.620;2024-03-02T00:00:08;94831.16;;;-13.30;69.11
59829;BME280;45708;51.848;107.620;2024-03-02T00:05:16;94831.19;;;-13.00;69.72
59829;BME280;45708;51.848;107.620;2024-03-02T00:10:20;94840.84;;;-12.91;69.06
59829;BME280;45708;51.848;107.620;2024-03-02T00:20:39;94850.91;;;-12.73;69.56
59829;BME280;45708;51.848;107.620;2024-03-02T00:25:42;94843.00;;;-12.53;69.41
59829;BME280;45708;51.848;107.620;2024-03-02T00:35:45;94836.56;;;-8.38;67.93
59829;BME280;45708;51.848;107.620;2024-03-02T00:40:46;94829.25;;;-7.41;65.76
59829;BME280;45708;51.848;107.620;2024-03-02T00:45:47;94835.63;;;-5.94;65.83
59829;BME280;45708;51.848;107.620;2024-03-02T00:50:52;94841.31;;;-4.78;63.50
59829;BME280;45708;51.848;107.620;2024-03-02T00:55:53;94838.03;;;-3.45;62.93
59829;BME280;45708;51.848;107.620;2024-03-02T01:00:54;94838.97;;;-2.45;60.51
59829;BME280;45708;51.848;107.620;2024-03-02T01:05:54;94835.09;;;-1.77;60.21
59829;BME280;45708;51.848;107.620;2024-03-02T01:10:56;94831.44;;;-0.81;58.96
59829;BME280;45708;51.848;107.620;2024-03-02T01:15:57;94828.78;;;0.12;57.39
59829;BME280;45708;51.848;107.620;2024-03-02T01:20:58;94826.19;;;0.36;56.88
59829;BME280;45708;51.848;107.620;2024-03-02T01:25:59;94830.91;;;0.33;56.28
59829;BME280;45708;51.848;107.620;2024-03-02T01:31:00;94811.09;;;0.32;55.31
59829;BME280;45708;51.848;107.620;2024-03-02T01:36:01;94838.19;;;0.53;54.73
59829;BME280;45708;51.848;107.620;2024-03-02T01:41:02;94838.38;;;0.27;53.73
59829;BME280;45708;51.848;107.620;2024-03-02T01:46:03;94835.78;;;-0.55;53.82
59829;BME280;45708;51.848;107.620;2024-03-02T01:51:04;94779.59;;;-0.81;54.04
59829;BME280;45708;51.848;107.620;2024-03-02T01:56:05;94827.94;;;-0.72;53.16
59829;BME280;45708;51.848;107.620;2024-03-02T02:01:05;94828.44;;;-1.02;52.98
59829;BME280;45708;51.848;107.620;2024-03-02T02:06:07;94826.63;;;-1.10;52.75
59829;BME280;45708;51.848;107.620;2024-03-02T02:11:08;94824.75;;;-2.76;53.14
59829;BME280;45708;51.848;107.620;2024-03-02T02:16:09;94832.50;;;-4.66;54.85
59829;BME280;45708;51.848;107.620;2024-03-02T02:21:10;94830.19;;;-5.49;55.87
59829;BME280;45708;51.848;107.620;2024-03-02T02:26:11;94827.13;;;-6.27;56.43
59829;BME280;45708;51.848;107.620;2024-03-02T02:31:12;94817.06;;;-6.19;56.83
59829;BME280;45708;51.848;107.620;2024-03-02T02:36:13;94812.38;;;-5.83;56.88
59829;BME280;45708;51.848;107.620;2024-03-02T02:41:14;94810.59;;;-5.62;57.22
59829;BME280;45708;51.848;107.620;2024-03-02T02:46:14;94814.28;;;-5.24;56.34
59829;BME280;45708;51.848;107.620;2024-03-02T02:51:16;94807.25;;;-5.22;56.56
59829;BME280;45708;51.848;107.620;2024-03-02T02:56:17;94807.91;;;-4.90;56.80
59829;BME280;45708;51.848;107.620;2024-03-02T03:01:18;94787.34;;;-4.51;56.19
59829;BME280;45708;51.848;107.620;2024-03-02T03:06:19;94808.13;;;-4.14;56.17
59829;BME280;45708;51.848;107.620;2024-03-02T03:11:20;94807.66;;;-3.71;55.92
59829;BME280;45708;51.848;107.620;2024-03-02T03:16:21;94806.28;;;-3.55;56.33
59829;BME280;45708;51.848;107.620;2024-03-02T03:21:21;94790.22;;;-3.49;56.26
59829;BME280;45708;51.848;107.620;2024-03-02T03:26:22;94793.16;;;-3.91;56.13
59829;BME280;45708;51.848;107.620;2024-03-02T03:31:23;94781.41;;;-4.32;56.80
59829;BME280;45708;51.848;107.620;2024-03-02T03:36:24;94781.94;;;-4.29;57.14
59829;BME280;45708;51.848;107.620;2024-03-02T03:41:25;94772.41;;;-3.99;56.84
59829;BME280;45708;51.848;107.620;2024-03-02T03:46:25;94769.31;;;-4.32;57.22
59829;BME280;45708;51.848;107.620;2024-03-02T03:51:26;94768.63;;;-4.53;56.80
59829;BME280;45708;51.848;107.620;2024-03-02T03:56:27;94777.34;;;-5.04;58.05
59829;BME280;45708;51.848;107.620;2024-03-02T04:01:28;94765.06;;;-4.81;58.18
59829;BME280;45708;51.848;107.620;2024-03-02T04:06:29;94765.50;;;-4.47;57.73
59829;BME280;45708;51.848;107.620;2024-03-02T04:11:30;94761.59;;;-4.32;57.19
59829;BME280;45708;51.848;107.620;2024-03-02T04:16:31;94756.81;;;-4.07;57.27
59829;BME280;45708;51.848;107.620;2024-03-02T04:21:31;94754.19;;;-3.88;57.06
59829;BME280;45708;51.848;107.620;2024-03-02T04:26:32;94763.56;;;-3.87;56.99
59829;BME280;45708;51.848;107.620;2024-03-02T04:31:33;94760.19;;;-4.07;56.99
59829;BME280;45708;51.848;107.620;2024-03-02T04:36:34;94746.09;;;-4.22;57.45
59829;BME280;45708;51.848;107.620;2024-03-02T04:41:34;94755.06;;;-4.16;57.41
59829;BME280;45708;51.848;107.620;2024-03-02T04:46:35;94743.63;;;-3.94;57.45
59829;BME280;45708;51.848;107.620;2024-03-02T04:51:36;94729.88;;;-3.85;57.72
59829;BME280;45708;51.848;107.620;2024-03-02T04:56:37;94733.13;;;-3.46;57.01
59829;BME280;45708;51.848;107.620;2024-03-02T05:01:38;94724.41;;;-3.35;57.19
59829;BME280;45708;51.848;107.620;2024-03-02T05:06:39;94721.38;;;-3.31;56.92
59829;BME280;45708;51.848;107.620;2024-03-02T05:11:40;94710.34;;;-3.60;57.07
59829;BME280;45708;51.848;107.620;2024-03-02T05:16:41;94710.56;;;-3.44;57.02
59829;BME280;45708;51.848;107.620;2024-03-02T05:21:41;94690.66;;;-3.61;57.34
59829;BME280;45708;51.848;107.620;2024-03-02T05:26:42;94696.31;;;-3.21;56.66
59829;BME280;45708;51.848;107.620;2024-03-02T05:31:43;94686.72;;;-3.11;56.58
59829;BME280;45708;51.848;107.620;2024-03-02T05:36:44;94686.16;;;-3.04;56.07
59829;BME280;45708;51.848;107.620;2024-03-02T05:41:45;94667.31;;;-3.42;56.71
59829;BME280;45708;51.848;107.620;2024-03-02T05:46:45;94663.94;;;-3.15;56.48
59829;BME280;45708;51.848;107.620;2024-03-02T05:51:46;94657.53;;;-2.58;56.53
59829;BME280;45708;51.848;107.620;2024-03-02T05:56:47;94662.59;;;-2.48;55.43
59829;BME280;45708;51.848;107.620;2024-03-02T06:01:49;94600.50;;;-2.74;55.05
59829;BME280;45708;51.848;107.620;2024-03-02T06:06:50;94649.13;;;-2.34;54.96
59829;BME280;45708;51.848;107.620;2024-03-02T06:11:51;94648.88;;;-2.66;55.34
59829;BME280;45708;51.848;107.620;2024-03-02T06:16:52;94646.59;;;-2.87;55.39
59829;BME280;45708;51.848;107.620;2024-03-02T06:21:52;94647.16;;;-3.11;55.36
59829;BME280;45708;51.848;107.620;2024-03-02T06:26:53;94636.69;;;-2.92;55.33
59829;BME280;45708;51.848;107.620;2024-03-02T06:31:54;94627.50;;;-2.51;54.91
59829;BME280;45708;51.848;107.620;2024-03-02T06:36:55;94634.34;;;-2.41;54.51
59829;BME280;45708;51.848;107.620;2024-03-02T06:41:56;94630.78;;;-2.84;54.81
59829;BME280;45708;51.848;107.620;2024-03-02T06:46:58;94621.91;;;-2.64;54.63
59829;BME280;45708;51.848;107.620;2024-03-02T06:51:59;94618.16;;;-2.87;54.88
59829;BME280;45708;51.848;107.620;2024-03-02T06:57:00;94620.72;;;-3.23;54.54
59829;BME280;45708;51.848;107.620;2024-03-02T07:02:00;94621.59;;;-3.50;54.74
59829;BME280;45708;51.848;107.620;2024-03-02T07:07:01;94604.31;;;-3.49;54.56
59829;BME280;45708;51.848;107.620;2024-03-02T07:12:02;94607.88;;;-3.50;54.58
59829;BME280;45708;51.848;107.620;2024-03-02T07:17:03;94589.63;;;-3.94;54.38
59829;BME280;45708;51.848;107.620;2024-03-02T07:22:06;94602.31;;;-3.83;54.43
59829;BME280;45708;51.848;107.620;2024-03-02T07:27:08;94608.34;;;-3.92;54.42
59829;BME280;45708;51.848;107.620;2024-03-02T07:32:10;94606.44;;;-3.90;54.29
59829;BME280;45708;51.848;107.620;2024-03-02T07:37:11;94604.53;;;-3.88;54.35
59829;BME280;45708;51.848;107.620;2024-03-02T07:42:11;94596.81;;;-3.25;54.07
59829;BME280;45708;51.848;107.620;2024-03-02T07:47:12;94588.06;;;-2.53;52.67
59829;BME280;45708;51.848;107.620;2024-03-02T07:52:13;94577.91;;;-2.20;52.69
59829;BME280;45708;51.848;107.620;2024-03-02T07:57:14;94591.28;;;-2.25;52.46
59829;BME280;45708;51.848;107.620;2024-03-02T08:02:15;94574.56;;;-2.64;52.93
59829;BME280;45708;51.848;107.620;2024-03-02T08:07:16;94561.97;;;-2.85;52.69
59829;BME280;45708;51.848;107.620;2024-03-02T08:12:17;94576.44;;;-3.28;52.88
59829;BME280;45708;51.848;107.620;2024-03-02T08:17:19;94572.69;;;-3.51;52.06
59829;BME280;45708;51.848;107.620;2024-03-02T08:22:20;94569.69;;;-3.74;52.69
59829;BME280;45708;51.848;107.620;2024-03-02T08:27:21;94583.59;;;-3.85;52.51
59829;BME280;45708;51.848;107.620;2024-03-02T08:32:22;94566.41;;;-3.94;52.13
59829;BME280;45708;51.848;107.620;2024-03-02T08:37:23;94585.84;;;-4.00;52.17
59829;BME280;45708;51.848;107.620;2024-03-02T08:42:23;94569.25;;;-4.24;52.00
59829;BME280;45708;51.848;107.620;2024-03-02T08:47:24;94583.19;;;-4.64;52.69
59829;BME280;45708;51.848;107.620;2024-03-02T08:52:25;94581.34;;;-5.01;53.34
59829;BME280;45708;51.848;107.620;2024-03-02T08:57:26;94584.50;;;-5.16;53.65
59829;BME280;45708;51.848;107.620;2024-03-02T09:02:27;94565.94;;;-5.39;53.29
59829;BME280;45708;51.848;107.620;2024-03-02T09:07:28;94580.16;;;-5.35;53.63
59829;BME280;45708;51.848;107.620;2024-03-02T09:12:28;94572.84;;;-5.40;53.89
59829;BME280;45708;51.848;107.620;2024-03-02T09:17:29;94570.94;;;-5.28;53.82
59829;BME280;45708;51.848;107.620;2024-03-02T09:22:30;94581.50;;;-5.12;53.67
59829;BME280;45708;51.848;107.620;2024-03-02T09:27:31;94576.63;;;-5.05;52.88
59829;BME280;45708;51.848;107.620;2024-03-02T09:32:32;94574.47;;;-5.00;53.08
59829;BME280;45708;51.848;107.620;2024-03-02T09:37:33;94570.13;;;-5.00;52.66
59829;BME280;45708;51.848;107.620;2024-03-02T09:42:34;94570.66;;;-5.06;52.68
59829;BME280;45708;51.848;107.620;2024-03-02T09:47:35;94572.03;;;-5.11;53.17
59829;BME280;45708;51.848;107.620;2024-03-02T09:52:36;94588.84;;;-5.17;52.74
59829;BME280;45708;51.848;107.620;2024-03-02T09:57:38;94581.09;;;-5.36;52.63
59829;BME280;45708;51.848;107.620;2024-03-02T10:02:39;94575.66;;;-5.53;53.50
59829;BME280;45708;51.848;107.620;2024-03-02T10:07:40;94587.97;;;-5.66;53.83
59829;BME280;45708;51.848;107.620;2024-03-02T10:12:40;94566.56;;;-5.95;53.41
59829;BME280;45708;51.848;107.620;2024-03-02T10:17:41;94573.00;;;-6.10;52.66
59829;BME280;45708;51.848;107.620;2024-03-02T10:22:42;94588.50;;;-6.22;53.65
59829;BME280;45708;51.848;107.620;2024-03-02T10:27:43;94587.25;;;-6.37;54.14
59829;BME280;45708;51.848;107.620;2024-03-02T10:32:44;94584.88;;;-6.50;54.04
59829;BME280;45708;51.848;107.620;2024-03-02T10:37:45;94588.69;;;-6.75;53.40
59829;BME280;45708;51.848;107.620;2024-03-02T10:42:47;94601.28;;;-6.92;53.61
59829;BME280;45708;51.848;107.620;2024-03-02T10:47:49;94607.09;;;-7.11;54.40
59829;BME280;45708;51.848;107.620;2024-03-02T10:52:50;94608.88;;;-7.23;54.63
59829;BME280;45708;51.848;107.620;2024-03-02T10:57:52;94614.25;;;-7.26;54.74
59829;BME280;45708;51.848;107.620;2024-03-02T11:02:57;94612.88;;;-7.30;54.24
59829;BME280;45708;51.848;107.620;2024-03-02T11:08:06;94610.25;;;-7.40;54.75
59829;BME280;45708;51.848;107.620;2024-03-02T11:13:11;94611.09;;;-7.50;55.00
59829;BME280;45708;51.848;107.620;2024-03-02T11:18:12;94612.84;;;-7.51;55.50
59829;BME280;45708;51.848;107.620;2024-03-02T11:23:15;94612.59;;;-7.48;55.93
59829;BME280;45708;51.848;107.620;2024-03-02T11:28:35;94595.38;;;-7.57;55.43
59829;BME280;45708;51.848;107.620;2024-03-02T11:33:36;94610.72;;;-7.46;56.15
59829;BME280;45708;51.848;107.620;2024-03-02T11:38:37;94619.97;;;-7.54;56.40
59829;BME280;45708;51.848;107.620;2024-03-02T11:43:39;94606.84;;;-7.72;56.66
59829;BME280;45708;51.848;107.620;2024-03-02T11:48:40;94624.28;;;-7.66;56.79
59829;BME280;45708;51.848;107.620;2024-03-02T11:53:41;94623.84;;;-7.71;56.84
59829;BME280;45708;51.848;107.620;2024-03-02T11:58:42;94622.47;;;-7.75;57.37
59829;BME280;45708;51.848;107.620;2024-03-02T12:03:45;94632.16;;;-7.79;57.33
59829;BME280;45708;51.848;107.620;2024-03-02T12:08:46;94618.97;;;-7.85;58.09
59829;BME280;45708;51.848;107.620;2024-03-02T12:13:53;94643.66;;;-7.84;57.85
59829;BME280;45708;51.848;107.620;2024-03-02T12:18:54;94640.91;;;-7.92;58.12
59829;BME280;45708;51.848;107.620;2024-03-02T12:23:55;94639.97;;;-8.03;58.32
59829;BME280;45708;51.848;107.620;2024-03-02T12:28:57;94639.28;;;-8.16;58.41
59829;BME280;45708;51.848;107.620;2024-03-02T12:33:58;94626.69;;;-8.30;58.88
59829;BME280;45708;51.848;107.620;2024-03-02T12:38:59;94633.72;;;-8.43;58.75
59829;BME280;45708;51.848;107.620;2024-03-02T12:44:00;94639.88;;;-8.57;58.69
59829;BME280;45708;51.848;107.620;2024-03-02T12:49:09;94636.47;;;-8.69;59.14
59829;BME280;45708;51.848;107.620;2024-03-02T12:54:11;94635.31;;;-8.76;59.24
59829;BME280;45708;51.848;107.620;2024-03-02T12:59:19;94638.41;;;-8.83;59.90
59829;BME280;45708;51.848;107.620;2024-03-02T13:04:28;94631.19;;;-8.90;59.40
59829;BME280;45708;51.848;107.620;2024-03-02T13:09:29;94629.75;;;-9.05;59.88
59829;BME280;45708;51.848;107.620;2024-03-02T13:14:32;94633.53;;;-9.22;59.49
59829;BME280;45708;51.848;107.620;2024-03-02T13:19:34;94639.06;;;-9.39;59.55
59829;BME280;45708;51.848;107.620;2024-03-02T13:24:35;94633.31;;;-9.54;60.22
59829;BME280;45708;51.848;107.620;2024-03-02T13:29:36;94631.09;;;-9.58;61.00
59829;BME280;45708;51.848;107.620;2024-03-02T13:34:37;94636.19;;;-9.58;60.51
59829;BME280;45708;51.848;107.620;2024-03-02T13:39:38;94641.94;;;-9.67;60.25
59829;BME280;45708;51.848;107.620;2024-03-02T13:44:39;94624.94;;;-9.79;61.21
59829;BME280;45708;51.848;107.620;2024-03-02T13:49:41;94626.28;;;-9.87;61.69
59829;BME280;45708;51.848;107.620;2024-03-02T13:54:44;94621.41;;;-10.02;60.76
59829;BME280;45708;51.848;107.620;2024-03-02T13:59:45;94621.31;;;-10.01;61.50
59829;BME280;45708;51.848;107.620;2024-03-02T14:04:48;94626.13;;;-10.09;61.16
59829;BME280;45708;51.848;107.620;2024-03-02T14:09:49;94609.13;;;-10.21;61.73
59829;BME280;45708;51.848;107.620;2024-03-02T14:14:50;94629.44;;;-10.20;61.72
59829;BME280;45708;51.848;107.620;2024-03-02T14:19:51;94623.03;;;-10.25;61.08
59829;BME280;45708;51.848;107.620;2024-03-02T14:24:52;94622.91;;;-10.24;61.88
59829;BME280;45708;51.848;107.620;2024-03-02T14:29:53;94635.63;;;-10.35;60.78
59829;BME280;45708;51.848;107.620;2024-03-02T14:34:53;94631.94;;;-10.44;62.20
59829;BME280;45708;51.848;107.620;2024-03-02T14:39:54;94620.94;;;-10.57;62.52
59829;BME280;45708;51.848;107.620;2024-03-02T14:44:55;94619.31;;;-10.58;62.13
59829;BME280;45708;51.848;107.620;2024-03-02T14:49:56;94622.28;;;-10.77;62.35
59829;BME280;45708;51.848;107.620;2024-03-02T14:54:57;94620.53;;;-10.89;62.73
59829;BME280;45708;51.848;107.620;2024-03-02T14:59:58;94610.25;;;-11.00;62.25
59829;BME280;45708;51.848;107.620;2024-03-02T15:04:59;94622.25;;;-11.02;62.99
59829;BME280;45708;51.848;107.620;2024-03-02T15:10:00;94615.72;;;-11.19;62.66
59829;BME280;45708;51.848;107.620;2024-03-02T15:15:01;94612.34;;;-11.32;62.53
59829;BME280;45708;51.848;107.620;2024-03-02T15:20:02;94625.38;;;-11.37;62.32
59829;BME280;45708;51.848;107.620;2024-03-02T15:25:04;94619.41;;;-11.50;62.24
59829;BME280;45708;51.848;107.620;2024-03-02T15:30:05;94600.81;;;-11.64;63.21
59829;BME280;45708;51.848;107.620;2024-03-02T15:35:06;94616.66;;;-11.59;62.53
59829;BME280;45708;51.848;107.620;2024-03-02T15:40:08;94618.56;;;-11.63;63.18
59829;BME280;45708;51.848;107.620;2024-03-02T15:45:09;94613.38;;;-11.61;62.85
59829;BME280;45708;51.848;107.620;2024-03-02T15:50:09;94609.94;;;-11.60;62.85
59829;BME280;45708;51.848;107.620;2024-03-02T15:55:10;94609.44;;;-11.53;62.79
59829;BME280;45708;51.848;107.620;2024-03-02T16:00:12;94598.94;;;-11.61;63.18
59829;BME280;45708;51.848;107.620;2024-03-02T16:05:13;94595.00;;;-11.67;62.55
59829;BME280;45708;51.848;107.620;2024-03-02T16:10:13;94601.84;;;-11.67;62.68
59829;BME280;45708;51.848;107.620;2024-03-02T16:15:14;94604.91;;;-11.62;63.49
59829;BME280;45708;51.848;107.620;2024-03-02T16:20:15;94613.28;;;-11.60;63.17
59829;BME280;45708;51.848;107.620;2024-03-02T16:25:16;94592.66;;;-11.70;62.96
59829;BME280;45708;51.848;107.620;2024-03-02T16:30:18;94606.72;;;-11.77;63.34
59829;BME280;45708;51.848;107.620;2024-03-02T16:35:18;94600.78;;;-11.90;63.66
59829;BME280;45708;51.848;107.620;2024-03-02T16:40:19;94608.28;;;-12.01;63.51
59829;BME280;45708;51.848;107.620;2024-03-02T16:45:20;94608.56;;;-12.06;64.02
59829;BME280;45708;51.848;107.620;2024-03-02T16:50:21;94617.59;;;-12.14;63.18
59829;BME280;45708;51.848;107.620;2024-03-02T16:55:25;94630.44;;;-12.30;63.84
59829;BME280;45708;51.848;107.620;2024-03-02T17:00:25;94625.28;;;-12.57;64.31
59829;BME280;45708;51.848;107.620;2024-03-02T17:05:26;94636.38;;;-12.72;63.74
59829;BME280;45708;51.848;107.620;2024-03-02T17:10:27;94637.44;;;-12.91;63.90
59829;BME280;45708;51.848;107.620;2024-03-02T17:15:28;94618.16;;;-13.09;64.13
59829;BME280;45708;51.848;107.620;2024-03-02T17:20:29;94631.97;;;-13.13;64.52
59829;BME280;45708;51.848;107.620;2024-03-02T17:25:29;94635.16;;;-13.24;64.77
59829;BME280;45708;51.848;107.620;2024-03-02T17:30:30;94640.59;;;-13.30;64.09
59829;BME280;45708;51.848;107.620;2024-03-02T17:35:31;94634.00;;;-13.48;64.02
59829;BME280;45708;51.848;107.620;2024-03-02T17:40:32;94635.56;;;-13.45;64.38
59829;BME280;45708;51.848;107.620;2024-03-02T17:45:32;94631.47;;;-13.48;64.25
59829;BME280;45708;51.848;107.620;2024-03-02T17:50:33;94637.81;;;-13.55;64.61
59829;BME280;45708;51.848;107.620;2024-03-02T17:55:34;94641.66;;;-13.64;64.71
59829;BME280;45708;51.848;107.620;2024-03-02T18:00:35;94628.75;;;-13.75;64.90
59829;BME280;45708;51.848;107.620;2024-03-02T18:05:36;94645.44;;;-13.71;64.14
59829;BME280;45708;51.848;107.620;2024-03-02T18:10:37;94645.16;;;-13.80;65.35
59829;BME280;45708;51.848;107.620;2024-03-02T18:15:40;94644.25;;;-13.95;65.58
59829;BME280;45708;51.848;107.620;2024-03-02T18:20:41;94645.81;;;-14.08;65.04
59829;BME280;45708;51.848;107.620;2024-03-02T18:25:42;94652.88;;;-14.14;64.85
59829;BME280;45708;51.848;107.620;2024-03-02T18:30:43;94634.28;;;-14.30;64.60
59829;BME280;45708;51.848;107.620;2024-03-02T18:35:44;94642.88;;;-14.17;65.66
59829;BME280;45708;51.848;107.620;2024-03-02T18:40:45;94648.25;;;-14.07;64.87
59829;BME280;45708;51.848;107.620;2024-03-02T18:45:45;94644.19;;;-14.09;65.74
59829;BME280;45708;51.848;107.620;2024-03-02T18:50:46;94659.75;;;-14.16;66.31
59829;BME280;45708;51.848;107.620;2024-03-02T18:55:47;94651.13;;;-14.29;64.63
59829;BME280;45708;51.848;107.620;2024-03-02T19:00:48;94646.16;;;-14.46;65.64
59829;BME280;45708;51.848;107.620;2024-03-02T19:05:49;94653.03;;;-14.48;66.12
59829;BME280;45708;51.848;107.620;2024-03-02T19:10:50;94644.28;;;-14.58;65.43
59829;BME280;45708;51.848;107.620;2024-03-02T19:15:51;94648.44;;;-14.57;64.81
59829;BME280;45708;51.848;107.620;2024-03-02T19:20:52;94647.28;;;-14.67;65.45
59829;BME280;45708;51.848;107.620;2024-03-02T19:25:53;94645.06;;;-14.73;65.59
59829;BME280;45708;51.848;107.620;2024-03-02T19:30:53;94648.06;;;-14.83;66.19
59829;BME280;45708;51.848;107.620;2024-03-02T19:35:54;94632.16;;;-15.02;66.52
59829;BME280;45708;51.848;107.620;2024-03-02T19:40:55;94643.78;;;-14.98;66.27
59829;BME280;45708;51.848;107.620;2024-03-02T19:45:56;94616.69;;;-15.13;66.36
59829;BME280;45708;51.848;107.620;2024-03-02T19:50:57;94641.44;;;-15.18;66.24
59829;BME280;45708;51.848;107.620;2024-03-02T19:55:58;94636.00;;;-15.28;65.91
59829;BME280;45708;51.848;107.620;2024-03-02T20:00:58;94642.19;;;-15.33;65.58
59829;BME280;45708;51.848;107.620;2024-03-02T20:05:59;94630.41;;;-15.34;67.05
59829;BME280;45708;51.848;107.620;2024-03-02T20:11:02;94645.06;;;-15.24;66.85
59829;BME280;45708;51.848;107.620;2024-03-02T20:16:09;94639.81;;;-15.19;65.68
59829;BME280;45708;51.848;107.620;2024-03-02T20:21:10;94648.06;;;-15.16;66.70
59829;BME280;45708;51.848;107.620;2024-03-02T20:26:11;94636.38;;;-15.18;66.65
59829;BME280;45708;51.848;107.620;2024-03-02T20:31:11;94645.50;;;-14.98;66.78
59829;BME280;45708;51.848;107.620;2024-03-02T20:36:13;94652.94;;;-14.95;65.88
59829;BME280;45708;51.848;107.620;2024-03-02T20:41:15;94651.31;;;-14.96;66.33
59829;BME280;45708;51.848;107.620;2024-03-02T20:46:16;94632.78;;;-15.14;66.44
59829;BME280;45708;51.848;107.620;2024-03-02T20:51:17;94656.75;;;-15.04;66.39
59829;BME280;45708;51.848;107.620;2024-03-02T20:56:18;94644.22;;;-15.07;67.14
59829;BME280;45708;51.848;107.620;2024-03-02T21:01:19;94646.19;;;-15.12;66.16
59829;BME280;45708;51.848;107.620;2024-03-02T21:06:19;94658.19;;;-15.16;67.25
59829;BME280;45708;51.848;107.620;2024-03-02T21:11:21;94635.09;;;-15.27;66.94
59829;BME280;45708;51.848;107.620;2024-03-02T21:16:22;94641.59;;;-15.21;66.21
59829;BME280;45708;51.848;107.620;2024-03-02T21:21:23;94658.63;;;-15.25;66.20
59829;BME280;45708;51.848;107.620;2024-03-02T21:26:23;94660.34;;;-15.25;67.48
59829;BME280;45708;51.848;107.620;2024-03-02T21:31:24;94655.66;;;-15.33;66.46
59829;BME280;45708;51.848;107.620;2024-03-02T21:36:25;94646.34;;;-15.50;67.36
59829;BME280;45708;51.848;107.620;2024-03-02T21:41:26;94653.22;;;-15.52;66.52
59829;BME280;45708;51.848;107.620;2024-03-02T21:46:27;94656.63;;;-15.53;67.13
59829;BME280;45708;51.848;107.620;2024-03-02T21:51:28;94639.44;;;-15.63;67.10
59829;BME280;45708;51.848;107.620;2024-03-02T21:56:28;94663.50;;;-15.55;66.82
59829;BME280;45708;51.848;107.620;2024-03-02T22:01:29;94662.22;;;-15.63;67.60
59829;BME280;45708;51.848;107.620;2024-03-02T22:06:30;94669.16;;;-15.67;66.96
59829;BME280;45708;51.848;107.620;2024-03-02T22:11:31;94663.06;;;-15.63;67.29
59829;BME280;45708;51.848;107.620;2024-03-02T22:16:32;94663.19;;;-15.66;67.71
59829;BME280;45708;51.848;107.620;2024-03-02T22:21:32;94668.13;;;-15.63;67.51
59829;BME280;45708;51.848;107.620;2024-03-02T22:26:33;94658.38;;;-15.71;67.45
59829;BME280;45708;51.848;107.620;2024-03-02T22:31:34;94664.41;;;-15.73;67.68
59829;BME280;45708;51.848;107.620;2024-03-02T22:36:35;94617.81;;;-16.05;67.65
59829;BME280;45708;51.848;107.620;2024-03-02T22:41:39;94664.16;;;-15.69;67.97
59829;BME280;45708;51.848;107.620;2024-03-02T22:46:40;94661.66;;;-15.69;67.42
59829;BME280;45708;51.848;107.620;2024-03-02T22:51:40;94664.09;;;-15.67;67.41
59829;BME280;45708;51.848;107.620;2024-03-02T22:56:41;94592.84;;;-16.11;67.32
59829;BME280;45708;51.848;107.620;2024-03-02T23:01:42;94651.66;;;-15.72;67.79
59829;BME280;45708;51.848;107.620;2024-03-02T23:06:43;94667.53;;;-15.68;67.06
59829;BME280;45708;51.848;107.620;2024-03-02T23:11:44;94665.72;;;-15.66;67.38
59829;BME280;45708;51.848;107.620;2024-03-02T23:16:44;94662.59;;;-15.71;67.92
59829;BME280;45708;51.848;107.620;2024-03-02T23:21:49;94667.31;;;-15.81;67.92
59829;BME280;45708;51.848;107.620;2024-03-02T23:26:52;94672.03;;;-15.92;67.72
59829;BME280;45708;51.848;107.620;2024-03-02T23:31:53;94673.00;;;-15.94;67.42
59829;BME280;45708;51.848;107.620;2024-03-02T23:36:54;94672.50;;;-16.03;67.17
59829;BME280;45708;51.848;107.620;2024-03-02T23:41:54;94686.94;;;-16.05;67.96
59829;BME280;45708;51.848;107.620;2024-03-02T23:46:55;94664.81;;;-16.00;67.49
59829;BME280;45708;51.848;107.620;2024-03-02T23:51:56;94675.81;;;-16.01;67.54
59829;BME280;45708;51.848;107.620;2024-03-02T23:56:57;94667.34;;;-16.00;67.97
